createdAt,value
2017-04-08T00:00:51.638Z,25.27
2017-04-08T00:02:00.417Z,25.85
2017-04-08T00:03:09.165Z,25.75
2017-04-08T00:04:17.903Z,25.75
2017-04-08T00:05:26.985Z,25.75
2017-04-08T00:06:36.074Z,25.75
2017-04-08T00:07:44.825Z,25.85
2017-04-08T00:08:53.868Z,25.18
2017-04-08T00:10:02.958Z,25.27
2017-04-08T00:11:12.049Z,25.85
2017-04-08T00:12:20.816Z,25.18
2017-04-08T00:13:30.163Z,26.04
2017-04-08T00:14:39.535Z,26.23
2017-04-08T00:15:48.628Z,25.27
2017-04-08T00:16:57.693Z,26.04
2017-04-08T00:18:06.699Z,26.14
2017-04-08T00:19:15.739Z,25.56
2017-04-08T00:20:24.822Z,25.66
2017-04-08T00:21:33.581Z,26.14
2017-04-08T00:22:42.332Z,25.75
2017-04-08T00:23:51.114Z,26.33
2017-04-08T00:25:00.250Z,26.14
2017-04-08T00:26:09.338Z,26.14
2017-04-08T00:27:18.608Z,26.04
2017-04-08T00:28:27.631Z,25.66
2017-04-08T00:29:36.336Z,26.04
2017-04-08T00:30:45.384Z,25.46
2017-04-08T00:31:54.141Z,25.85
2017-04-08T00:33:03.716Z,26.04
2017-04-08T00:34:13.413Z,25.75
2017-04-08T00:35:22.508Z,26.14
2017-04-08T00:36:31.285Z,26.04
2017-04-08T00:37:40.043Z,26.04
2017-04-08T00:38:49.394Z,26.33
2017-04-08T00:39:58.446Z,26.04
2017-04-08T00:41:07.795Z,26.14
2017-04-08T00:42:16.569Z,26.04
2017-04-08T00:43:26.273Z,25.46
2017-04-08T00:44:35.971Z,25.46
2017-04-08T00:45:45.670Z,26.04
2017-04-08T00:46:54.465Z,26.14
2017-04-08T00:48:03.230Z,25.37
2017-04-08T00:49:12.586Z,25.95
2017-04-08T00:50:21.980Z,25.46
2017-04-08T00:51:31.069Z,25.37
2017-04-08T00:52:39.847Z,25.37
2017-04-08T00:53:49.252Z,25.93
2017-04-08T00:54:58.341Z,26.03
2017-04-08T00:56:07.120Z,25.46
2017-04-08T00:57:16.521Z,25.93
2017-04-08T00:58:26.232Z,25.74
2017-04-08T00:59:35.297Z,25.84
2017-04-08T01:00:44.705Z,25.85
2017-04-08T01:01:53.796Z,25.64
2017-04-08T01:03:02.582Z,25.74
2017-04-08T01:04:11.667Z,25.64
2017-04-08T01:05:20.751Z,25.84
2017-04-08T01:06:29.830Z,25.85
2017-04-08T01:07:38.609Z,25.84
2017-04-08T01:08:47.707Z,25.74
2017-04-08T01:09:56.771Z,25.64
2017-04-08T01:11:05.836Z,25.66
2017-04-08T01:12:14.607Z,25.84
2017-04-08T01:13:23.689Z,25.74
2017-04-08T01:14:33.991Z,25.95
2017-04-08T01:15:43.385Z,25.93
2017-04-08T01:16:52.154Z,25.75
2017-04-08T01:18:00.897Z,25.84
2017-04-08T01:19:10.004Z,25.85
2017-04-08T01:20:19.294Z,25.85
2017-04-08T01:21:28.068Z,25.66
2017-04-08T01:22:37.153Z,25.95
2017-04-08T01:23:45.910Z,26.33
2017-04-08T01:24:54.638Z,25.84
2017-04-08T01:26:03.948Z,26.03
2017-04-08T01:27:13.036Z,26.42
2017-04-08T01:28:22.117Z,26.12
2017-04-08T01:29:31.204Z,26.23
2017-04-08T01:30:39.990Z,25.64
2017-04-08T01:31:48.771Z,26.12
2017-04-08T01:32:57.554Z,26.03
2017-04-08T01:34:06.645Z,25.93
2017-04-08T01:35:15.717Z,26.42
2017-04-08T01:36:24.499Z,26.42
2017-04-08T01:37:33.240Z,26.22
2017-04-08T01:38:41.979Z,26.12
2017-04-08T01:39:50.766Z,26.22
2017-04-08T01:41:00.167Z,26.03
2017-04-08T01:42:09.255Z,26.43
2017-04-08T01:43:18.005Z,26.03
2017-04-08T01:44:26.748Z,26.22
2017-04-08T01:45:35.839Z,26.51
2017-04-08T01:46:44.627Z,26.12
2017-04-08T01:47:53.721Z,26.22
2017-04-08T01:49:02.755Z,26.22
2017-04-08T01:50:11.795Z,26.12
2017-04-08T01:51:20.578Z,26.32
2017-04-08T01:52:29.647Z,26.22
2017-04-08T01:53:39.294Z,25.93
2017-04-08T01:54:48.379Z,26.32
2017-04-08T01:55:57.744Z,26.61
2017-04-08T01:57:06.491Z,26.32
2017-04-08T01:58:15.585Z,26.03
2017-04-08T01:59:24.991Z,26.51
2017-04-08T02:00:34.046Z,26.03
2017-04-08T02:01:43.131Z,25.84
2017-04-08T02:02:52.566Z,26.32
2017-04-08T02:04:01.688Z,26.42
2017-04-08T02:05:10.481Z,26.51
2017-04-08T02:06:19.540Z,25.93
2017-04-08T02:07:28.256Z,25.93
2017-04-08T02:08:37.335Z,26.42
2017-04-08T02:09:46.683Z,25.84
2017-04-08T02:10:55.676Z,26.03
2017-04-08T02:12:04.595Z,26.42
2017-04-08T02:13:13.336Z,26.12
2017-04-08T02:14:22.351Z,26.03
2017-04-08T02:15:31.114Z,26.42
2017-04-08T02:16:40.189Z,25.93
2017-04-08T02:17:49.555Z,26.03
2017-04-08T02:18:58.581Z,26.12
2017-04-08T02:20:07.648Z,26.12
2017-04-08T02:21:16.717Z,26.32
2017-04-08T02:22:26.086Z,26.32
2017-04-08T02:23:35.181Z,26.51
2017-04-08T02:24:44.556Z,26.03
2017-04-08T02:25:53.317Z,26.32
2017-04-08T02:27:02.072Z,25.93
2017-04-08T02:28:10.807Z,26.42
2017-04-08T02:29:20.486Z,26.51
2017-04-08T02:30:29.570Z,26.51
2017-04-08T02:31:38.293Z,26.03
2017-04-08T02:32:47.019Z,26.03
2017-04-08T02:33:56.036Z,26.03
2017-04-08T02:35:05.082Z,25.93
2017-04-08T02:36:14.114Z,25.93
2017-04-08T02:37:22.879Z,26.03
2017-04-08T02:38:31.953Z,25.93
2017-04-08T02:39:40.714Z,26.61
2017-04-08T02:40:49.485Z,25.93
2017-04-08T02:41:58.253Z,26.03
2017-04-08T02:43:07.365Z,25.93
2017-04-08T02:44:16.410Z,25.93
2017-04-08T02:45:25.710Z,26.61
2017-04-08T02:46:34.440Z,26.03
2017-04-08T02:47:43.801Z,26.42
2017-04-08T02:48:52.846Z,26.03
2017-04-08T02:50:01.554Z,26.03
2017-04-08T02:51:10.314Z,26.61
2017-04-08T02:52:19.080Z,26.51
2017-04-08T02:53:27.849Z,26.03
2017-04-08T02:54:36.611Z,26.03
2017-04-08T02:55:45.681Z,26.42
2017-04-08T02:56:54.447Z,26.12
2017-04-08T02:58:03.208Z,26.03
2017-04-08T02:59:12.258Z,26.51
2017-04-08T03:00:20.987Z,26.61
2017-04-08T03:01:29.730Z,26.12
2017-04-08T03:02:38.446Z,26.42
2017-04-08T03:03:47.213Z,26.61
2017-04-08T03:04:55.973Z,26.8
2017-04-08T03:06:05.365Z,26.8
2017-04-08T03:07:14.107Z,26.7
2017-04-08T03:08:22.827Z,26.42
2017-04-08T03:09:31.865Z,26.42
2017-04-08T03:10:40.885Z,26.03
2017-04-08T03:11:49.653Z,26.42
2017-04-08T03:12:58.400Z,26.7
2017-04-08T03:14:07.455Z,26.61
2017-04-08T03:15:16.225Z,25.84
2017-04-08T03:16:24.959Z,26.12
2017-04-08T03:17:33.676Z,26.32
2017-04-08T03:18:42.446Z,26.8
2017-04-08T03:19:51.209Z,26.51
2017-04-08T03:21:00.590Z,26.8
2017-04-08T03:22:09.628Z,26.32
2017-04-08T03:23:18.659Z,26.8
2017-04-08T03:24:27.424Z,26.9
2017-04-08T03:25:36.203Z,26.22
2017-04-08T03:26:45.012Z,26.22
2017-04-08T03:27:54.400Z,26.9
2017-04-08T03:29:03.147Z,26.8
2017-04-08T03:30:12.479Z,26.8
2017-04-08T03:31:21.228Z,26.42
2017-04-08T03:32:30.300Z,26.61
2017-04-08T03:33:39.032Z,26.32
2017-04-08T03:34:47.761Z,26.42
2017-04-08T03:35:57.130Z,26.7
2017-04-08T03:37:06.191Z,26.61
2017-04-08T03:38:15.260Z,26.8
2017-04-08T03:39:24.322Z,26.7
2017-04-08T03:40:33.092Z,26.03
2017-04-08T03:41:41.850Z,26.61
2017-04-08T03:42:50.585Z,26.12
2017-04-08T03:43:59.299Z,26.22
2017-04-08T03:45:08.370Z,26.51
2017-04-08T03:46:17.438Z,26.51
2017-04-08T03:47:26.509Z,26.03
2017-04-08T03:48:35.572Z,26.42
2017-04-08T03:49:44.324Z,26.51
2017-04-08T03:50:53.090Z,26.32
2017-04-08T03:52:02.761Z,25.93
2017-04-08T03:53:12.114Z,25.93
2017-04-08T03:54:20.853Z,26.42
2017-04-08T03:55:29.926Z,26.22
2017-04-08T03:56:38.695Z,26.22
2017-04-08T03:57:47.761Z,26.51
2017-04-08T03:58:57.440Z,26.22
2017-04-08T04:00:06.384Z,26.32
2017-04-08T04:01:15.127Z,26.42
2017-04-08T04:02:24.498Z,25.93
2017-04-08T04:03:33.570Z,25.93
2017-04-08T04:04:43.222Z,25.93
2017-04-08T04:05:52.251Z,25.74
2017-04-08T04:07:01.314Z,25.74
2017-04-08T04:08:10.081Z,25.74
2017-04-08T04:09:18.826Z,25.84
2017-04-08T04:10:28.763Z,25.74
2017-04-08T04:11:37.525Z,25.84
2017-04-08T04:12:46.589Z,25.84
2017-04-08T04:13:55.332Z,25.84
2017-04-08T04:15:04.362Z,25.64
2017-04-08T04:16:13.133Z,25.64
2017-04-08T04:17:21.899Z,25.35
2017-04-08T04:18:30.943Z,25.35
2017-04-08T04:19:39.638Z,26.03
2017-04-08T04:20:48.970Z,25.93
2017-04-08T04:21:57.736Z,25.93
2017-04-08T04:23:07.021Z,25.93
2017-04-08T04:24:16.054Z,25.35
2017-04-08T04:25:25.361Z,26.22
2017-04-08T04:26:34.698Z,26.32
2017-04-08T04:27:43.771Z,26.32
2017-04-08T04:28:53.157Z,25.45
2017-04-08T04:30:02.516Z,25.46
2017-04-08T04:31:11.236Z,25.37
2017-04-08T04:32:20.006Z,26.14
2017-04-08T04:33:29.064Z,26.22
2017-04-08T04:34:37.822Z,26.04
2017-04-08T04:35:47.195Z,25.93
2017-04-08T04:36:55.942Z,25.66
2017-04-08T04:38:04.700Z,26.14
2017-04-08T04:39:14.054Z,25.66
2017-04-08T04:40:22.815Z,26.14
2017-04-08T04:41:31.559Z,26.33
2017-04-08T04:42:40.284Z,25.45
2017-04-08T04:43:49.051Z,26.12
2017-04-08T04:44:57.813Z,25.85
2017-04-08T04:46:06.883Z,26.33
2017-04-08T04:47:15.647Z,26.04
2017-04-08T04:48:24.702Z,26.33
2017-04-08T04:49:33.454Z,26.14
2017-04-08T04:50:42.721Z,25.66
2017-04-08T04:51:51.760Z,25.27
2017-04-08T04:53:00.778Z,25.27
2017-04-08T04:54:09.523Z,26.04
2017-04-08T04:55:18.529Z,26.04
2017-04-08T04:56:27.557Z,25.27
2017-04-08T04:57:36.330Z,25.18
2017-04-08T04:58:45.103Z,25.18
2017-04-08T04:59:54.148Z,25.85
2017-04-08T05:01:02.884Z,25.66
2017-04-08T05:02:11.947Z,25.27
2017-04-08T05:03:20.694Z,25.18
2017-04-08T05:04:29.999Z,25.75
2017-04-08T05:05:39.030Z,25.85
2017-04-08T05:06:47.794Z,25.18
2017-04-08T05:07:56.553Z,25.37
2017-04-08T05:09:05.317Z,25.27
2017-04-08T05:10:14.084Z,25.85
2017-04-08T05:11:22.849Z,25.27
2017-04-08T05:12:31.645Z,25.46
2017-04-08T05:13:40.425Z,25.46
2017-04-08T05:14:49.496Z,25.37
2017-04-08T05:15:58.260Z,25.75
2017-04-08T05:17:07.498Z,25.27
2017-04-08T05:18:16.213Z,25.75
2017-04-08T05:19:25.560Z,25.37
2017-04-08T05:20:34.552Z,25.66
2017-04-08T05:21:43.247Z,26.04
2017-04-08T05:22:51.974Z,25.85
2017-04-08T05:24:01.045Z,25.85
2017-04-08T05:25:10.142Z,25.95
2017-04-08T05:26:18.897Z,25.86
2017-04-08T05:27:28.261Z,25.67
2017-04-08T05:28:37.700Z,25.67
2017-04-08T05:29:47.689Z,25.86
2017-04-08T05:30:56.437Z,25.76
2017-04-08T05:32:05.502Z,25.86
2017-04-08T05:33:14.238Z,25.28
2017-04-08T05:34:22.957Z,25.67
2017-04-08T05:35:31.724Z,25.38
2017-04-08T05:36:40.490Z,25.28
2017-04-08T05:37:49.250Z,25.76
2017-04-08T05:38:58.328Z,25.57
2017-04-08T05:40:07.094Z,25.19
2017-04-08T05:41:15.860Z,25.19
2017-04-08T05:42:24.903Z,25.57
2017-04-08T05:43:33.624Z,25.48
2017-04-08T05:44:42.993Z,25.48
2017-04-08T05:45:52.017Z,25.48
2017-04-08T05:47:00.774Z,25.38
2017-04-08T05:48:09.815Z,25.48
2017-04-08T05:49:18.819Z,25.38
2017-04-08T05:50:28.156Z,25.09
2017-04-08T05:51:37.207Z,25.28
2017-04-08T05:52:46.528Z,24.99
2017-04-08T05:53:55.613Z,25.09
2017-04-08T05:55:04.686Z,25.38
2017-04-08T05:56:13.752Z,24.99
2017-04-08T05:57:22.821Z,25.19
2017-04-08T05:58:31.888Z,25.09
2017-04-08T05:59:41.569Z,25.38
2017-04-08T06:00:50.952Z,25.19
2017-04-08T06:02:00.013Z,25.38
2017-04-08T06:03:09.083Z,25.19
2017-04-08T06:04:17.846Z,25.28
2017-04-08T06:05:26.610Z,25.28
2017-04-08T06:06:35.367Z,25.19
2017-04-08T06:07:44.727Z,25.38
2017-04-08T06:08:53.475Z,24.71
2017-04-08T06:10:02.538Z,25.19
2017-04-08T06:11:11.917Z,24.9
2017-04-08T06:12:20.676Z,25.19
2017-04-08T06:13:29.761Z,24.8
2017-04-08T06:14:39.454Z,24.8
2017-04-08T06:15:48.525Z,25.19
2017-04-08T06:16:57.591Z,24.99
2017-04-08T06:18:06.391Z,24.8
2017-04-08T06:19:15.157Z,24.9
2017-04-08T06:20:24.236Z,24.99
2017-04-08T06:21:33.283Z,24.99
2017-04-08T06:22:42.015Z,24.99
2017-04-08T06:23:50.779Z,25.01
2017-04-08T06:24:59.549Z,24.8
2017-04-08T06:26:08.315Z,24.8
2017-04-08T06:27:17.075Z,24.8
2017-04-08T06:28:25.861Z,25.01
2017-04-08T06:29:34.633Z,24.9
2017-04-08T06:30:43.388Z,24.9
2017-04-08T06:31:52.148Z,24.71
2017-04-08T06:33:00.914Z,24.61
2017-04-08T06:34:09.999Z,25.01
2017-04-08T06:35:18.774Z,24.51
2017-04-08T06:36:27.548Z,24.99
2017-04-08T06:37:36.622Z,25.01
2017-04-08T06:38:45.682Z,24.91
2017-04-08T06:39:54.454Z,25.01
2017-04-08T06:41:04.116Z,24.62
2017-04-08T06:42:12.836Z,25.01
2017-04-08T06:43:21.572Z,24.91
2017-04-08T06:44:30.307Z,24.52
2017-04-08T06:45:39.377Z,24.91
2017-04-08T06:46:48.434Z,24.62
2017-04-08T06:47:57.777Z,25.29
2017-04-08T06:49:06.804Z,24.62
2017-04-08T06:50:15.850Z,25.01
2017-04-08T06:51:24.855Z,24.91
2017-04-08T06:52:33.545Z,24.72
2017-04-08T06:53:42.267Z,24.81
2017-04-08T06:54:51.974Z,24.91
2017-04-08T06:56:01.037Z,24.72
2017-04-08T06:57:10.674Z,24.72
2017-04-08T06:58:20.353Z,24.91
2017-04-08T06:59:29.414Z,24.62
2017-04-08T07:00:38.166Z,25.01
2017-04-08T07:01:47.232Z,24.72
2017-04-08T07:02:56.289Z,24.72
2017-04-08T07:04:05.786Z,24.62
2017-04-08T07:05:14.856Z,24.72
2017-04-08T07:06:23.623Z,25.1
2017-04-08T07:07:32.384Z,25.1
2017-04-08T07:08:41.937Z,25.01
2017-04-08T07:09:51.284Z,24.91
2017-04-08T07:11:00.025Z,24.72
2017-04-08T07:12:08.736Z,25.01
2017-04-08T07:13:17.466Z,24.72
2017-04-08T07:14:26.234Z,25.1
2017-04-08T07:15:35.314Z,24.52
2017-04-08T07:16:44.380Z,25.01
2017-04-08T07:17:53.152Z,24.72
2017-04-08T07:19:01.924Z,24.33
2017-04-08T07:20:10.693Z,24.62
2017-04-08T07:21:19.474Z,24.72
2017-04-08T07:22:28.236Z,24.62
2017-04-08T07:23:37.911Z,24.23
2017-04-08T07:24:46.673Z,24.72
2017-04-08T07:25:55.712Z,24.34
2017-04-08T07:27:04.667Z,24.43
2017-04-08T07:28:13.399Z,24.62
2017-04-08T07:29:22.423Z,24.62
2017-04-08T07:30:31.798Z,24.73
2017-04-08T07:31:41.159Z,24.63
2017-04-08T07:32:49.959Z,24.24
2017-04-08T07:33:58.718Z,24.44
2017-04-08T07:35:07.469Z,24.24
2017-04-08T07:36:16.199Z,24.54
2017-04-08T07:37:25.231Z,24.54
2017-04-08T07:38:34.298Z,24.44
2017-04-08T07:39:43.061Z,24.63
2017-04-08T07:40:52.120Z,24.15
2017-04-08T07:42:00.891Z,24.24
2017-04-08T07:43:10.246Z,24.15
2017-04-08T07:44:19.277Z,24.15
2017-04-08T07:45:28.015Z,24.54
2017-04-08T07:46:37.085Z,24.34
2017-04-08T07:47:45.844Z,24.54
2017-04-08T07:48:55.226Z,24.44
2017-04-08T07:50:03.991Z,24.15
2017-04-08T07:51:13.105Z,24.44
2017-04-08T07:52:22.488Z,23.96
2017-04-08T07:53:31.233Z,24.24
2017-04-08T07:54:40.268Z,24.24
2017-04-08T07:55:49.030Z,24.05
2017-04-08T07:56:57.800Z,24.15
2017-04-08T07:58:06.609Z,23.96
2017-04-08T07:59:16.279Z,24.15
2017-04-08T08:00:25.966Z,24.15
2017-04-08T08:01:35.041Z,23.57
2017-04-08T08:02:44.119Z,24.15
2017-04-08T08:03:54.040Z,24.05
2017-04-08T08:05:03.429Z,23.96
2017-04-08T08:06:12.198Z,23.86
2017-04-08T08:07:21.240Z,23.97
2017-04-08T08:08:30.266Z,23.86
2017-04-08T08:09:39.341Z,23.86
2017-04-08T08:10:48.419Z,23.87
2017-04-08T08:11:57.181Z,23.49
2017-04-08T08:13:06.250Z,23.77
2017-04-08T08:14:15.314Z,23.57
2017-04-08T08:15:24.391Z,23.57
2017-04-08T08:16:33.155Z,23.68
2017-04-08T08:17:41.926Z,23.58
2017-04-08T08:18:50.691Z,23.68
2017-04-08T08:19:59.456Z,23.76
2017-04-08T08:21:08.530Z,23.58
2017-04-08T08:22:17.879Z,23.87
2017-04-08T08:23:26.614Z,23.96
2017-04-08T08:24:36.003Z,23.58
2017-04-08T08:25:45.349Z,23.87
2017-04-08T08:26:54.044Z,23.86
2017-04-08T08:28:03.083Z,23.68
2017-04-08T08:29:12.778Z,23.76
2017-04-08T08:30:21.819Z,23.76
2017-04-08T08:31:30.546Z,23.68
2017-04-08T08:32:39.620Z,23.57
2017-04-08T08:33:49.002Z,23.29
2017-04-08T08:34:58.368Z,23.29
2017-04-08T08:36:07.162Z,23.77
2017-04-08T08:37:16.534Z,23.68
2017-04-08T08:38:25.608Z,23.29
2017-04-08T08:39:34.374Z,23.49
2017-04-08T08:40:43.171Z,23.58
2017-04-08T08:41:51.928Z,23.49
2017-04-08T08:43:00.971Z,23.49
2017-04-08T08:44:10.675Z,23.58
2017-04-08T08:45:20.042Z,23.49
2017-04-08T08:46:29.418Z,23.29
2017-04-08T08:47:38.481Z,23.68
2017-04-08T08:48:47.853Z,23.29
2017-04-08T08:49:57.192Z,23.77
2017-04-08T08:51:06.307Z,23.77
2017-04-08T08:52:15.079Z,23.77
2017-04-08T08:53:23.837Z,23.87
2017-04-08T08:54:32.598Z,23.29
2017-04-08T08:55:41.337Z,23.39
2017-04-08T08:56:50.062Z,23.58
2017-04-08T08:57:58.828Z,23.58
2017-04-08T08:59:07.918Z,23.58
2017-04-08T09:00:16.686Z,23.77
2017-04-08T09:01:25.429Z,23.58
2017-04-08T09:02:34.153Z,23.87
2017-04-08T09:03:43.525Z,23.77
2017-04-08T09:04:52.899Z,23.57
2017-04-08T09:06:02.872Z,23.58
2017-04-08T09:07:12.235Z,23.66
2017-04-08T09:08:21.619Z,23.49
2017-04-08T09:09:30.968Z,23.58
2017-04-08T09:10:40.030Z,23.77
2017-04-08T09:11:48.801Z,23.76
2017-04-08T09:12:57.564Z,23.87
2017-04-08T09:14:06.336Z,23.66
2017-04-08T09:15:15.085Z,23.96
2017-04-08T09:16:23.783Z,23.49
2017-04-08T09:17:32.502Z,23.87
2017-04-08T09:18:41.920Z,23.87
2017-04-08T09:19:51.920Z,23.76
2017-04-08T09:21:00.656Z,23.86
2017-04-08T09:22:09.995Z,24.24
2017-04-08T09:23:19.044Z,23.96
2017-04-08T09:24:28.049Z,24.24
2017-04-08T09:25:36.772Z,24.15
2017-04-08T09:26:46.100Z,24.15
2017-04-08T09:27:54.867Z,23.86
2017-04-08T09:29:03.596Z,24.26
2017-04-08T09:30:12.638Z,24.15
2017-04-08T09:31:22.041Z,24.15
2017-04-08T09:32:31.081Z,24.15
2017-04-08T09:33:39.783Z,24.24
2017-04-08T09:34:48.501Z,24.05
2017-04-08T09:35:57.837Z,23.96
2017-04-08T09:37:06.907Z,23.96
2017-04-08T09:38:15.674Z,24.15
2017-04-08T09:39:25.362Z,23.86
2017-04-08T09:40:34.154Z,24.15
2017-04-08T09:41:43.208Z,23.38
2017-04-08T09:42:51.949Z,24.07
2017-04-08T09:44:00.678Z,23.87
2017-04-08T09:45:09.744Z,23.68
2017-04-08T09:46:18.794Z,23.77
2017-04-08T09:47:28.130Z,23.87
2017-04-08T09:48:37.206Z,23.87
2017-04-08T09:49:46.273Z,23.77
2017-04-08T09:50:55.646Z,23.58
2017-04-08T09:52:04.395Z,23.49
2017-04-08T09:53:13.762Z,23.39
2017-04-08T09:54:23.771Z,23.77
2017-04-08T09:55:32.845Z,23.49
2017-04-08T09:56:41.613Z,23.87
2017-04-08T09:57:50.651Z,23.87
2017-04-08T09:58:59.980Z,23.87
2017-04-08T10:00:09.030Z,23.87
2017-04-08T10:01:17.772Z,23.77
2017-04-08T10:02:26.534Z,23.87
2017-04-08T10:03:35.612Z,23.68
2017-04-08T10:04:44.661Z,23.68
2017-04-08T10:05:53.989Z,23.58
2017-04-08T10:07:02.754Z,23.68
2017-04-08T10:08:12.322Z,23.68
2017-04-08T10:09:21.397Z,23.68
2017-04-08T10:10:30.777Z,23.58
2017-04-08T10:11:39.844Z,23.58
2017-04-08T10:12:48.942Z,23.66
2017-04-08T10:13:58.005Z,23.68
2017-04-08T10:15:06.778Z,23.87
2017-04-08T10:16:15.516Z,23.77
2017-04-08T10:17:24.540Z,23.76
2017-04-08T10:18:33.585Z,23.87
2017-04-08T10:19:42.305Z,23.58
2017-04-08T10:20:51.392Z,23.58
2017-04-08T10:22:00.465Z,23.68
2017-04-08T10:23:10.052Z,23.68
2017-04-08T10:24:19.118Z,23.68
2017-04-08T10:25:27.889Z,23.68
2017-04-08T10:26:36.938Z,23.68
2017-04-08T10:27:45.671Z,23.77
2017-04-08T10:28:55.304Z,23.87
2017-04-08T10:30:04.678Z,23.77
2017-04-08T10:31:13.439Z,23.87
2017-04-08T10:32:22.804Z,23.87
2017-04-08T10:33:31.551Z,23.49
2017-04-08T10:34:40.623Z,23.49
2017-04-08T10:35:49.398Z,23.58
2017-04-08T10:36:58.471Z,23.68
2017-04-08T10:38:07.235Z,23.29
2017-04-08T10:39:16.298Z,23.77
2017-04-08T10:40:25.244Z,23.58
2017-04-08T10:41:33.972Z,23.39
2017-04-08T10:42:42.733Z,23.49
2017-04-08T10:43:51.460Z,23.58
2017-04-08T10:45:00.492Z,23.1
2017-04-08T10:46:09.563Z,23.68
2017-04-08T10:47:18.626Z,23.68
2017-04-08T10:48:28.282Z,23.49
2017-04-08T10:49:37.006Z,23.49
2017-04-08T10:50:46.085Z,23.58
2017-04-08T10:51:55.454Z,23.39
2017-04-08T10:53:04.519Z,23.79
2017-04-08T10:54:13.284Z,23.29
2017-04-08T10:55:22.061Z,23.3
2017-04-08T10:56:31.109Z,23.39
2017-04-08T10:57:39.806Z,23.4
2017-04-08T10:58:48.529Z,23.01
2017-04-08T10:59:57.278Z,23.3
2017-04-08T11:01:05.995Z,23.11
2017-04-08T11:02:15.210Z,22.91
2017-04-08T11:03:23.974Z,22.82
2017-04-08T11:04:33.045Z,22.64
2017-04-08T11:05:42.106Z,22.54
2017-04-08T11:06:50.862Z,22.34
2017-04-08T11:07:59.628Z,22.06
2017-04-08T11:09:08.409Z,22.16
2017-04-08T11:10:17.791Z,21.88
2017-04-08T11:11:26.898Z,21.68
2017-04-08T11:12:35.660Z,21.69
2017-04-08T11:13:45.037Z,21.4
2017-04-08T11:14:53.802Z,20.92
2017-04-08T11:16:02.599Z,20.82
2017-04-08T11:17:11.665Z,21.01
2017-04-08T11:18:20.442Z,20.72
2017-04-08T11:19:29.505Z,20.64
2017-04-08T11:20:39.148Z,21.22
2017-04-08T11:21:48.519Z,20.54
2017-04-08T11:22:57.276Z,20.93
2017-04-08T11:24:06.321Z,20.15
2017-04-08T11:25:15.323Z,20.26
2017-04-08T11:26:24.948Z,20.26
2017-04-08T11:27:34.019Z,19.78
2017-04-08T11:28:43.401Z,19.5
2017-04-08T11:29:53.056Z,19.5
2017-04-08T11:31:02.701Z,19.5
2017-04-08T11:32:11.775Z,19.7
2017-04-08T11:33:20.859Z,19.88
2017-04-08T11:34:30.514Z,19.88
2017-04-08T11:35:39.260Z,19.59
2017-04-08T11:36:48.604Z,19.59
2017-04-08T11:37:57.632Z,19.78
2017-04-08T11:39:06.981Z,19.68
2017-04-08T11:40:15.983Z,19.78
2017-04-08T11:41:25.018Z,19.98
2017-04-08T11:42:33.780Z,20.37
2017-04-08T11:43:42.549Z,20.07
2017-04-08T11:44:51.918Z,20.27
2017-04-08T11:46:00.701Z,20.07
2017-04-08T11:47:09.772Z,20.36
2017-04-08T11:48:18.537Z,20.06
2017-04-08T11:49:27.597Z,20.26
2017-04-08T11:50:36.663Z,20.26
2017-04-08T11:51:45.417Z,20.36
2017-04-08T11:52:54.188Z,20.16
2017-04-08T11:54:02.957Z,20.55
2017-04-08T11:55:11.728Z,20.26
2017-04-08T11:56:20.461Z,20.26
2017-04-08T11:57:29.189Z,20.45
2017-04-08T11:58:37.947Z,20.26
2017-04-08T11:59:46.698Z,20.45
2017-04-08T12:00:56.369Z,20.55
2017-04-08T12:02:05.118Z,20.06
2017-04-08T12:03:13.815Z,20.06
2017-04-08T12:04:23.771Z,20.26
2017-04-08T12:05:32.545Z,20.26
2017-04-08T12:06:41.310Z,20.16
2017-04-08T12:07:50.382Z,20.36
2017-04-08T12:09:00.274Z,20.36
2017-04-08T12:10:09.943Z,20.36
2017-04-08T12:11:18.710Z,20.27
2017-04-08T12:12:27.787Z,20.17
2017-04-08T12:13:36.825Z,20.07
2017-04-08T12:14:45.569Z,20.37
2017-04-08T12:15:54.644Z,20.37
2017-04-08T12:17:03.434Z,20.27
2017-04-08T12:18:12.439Z,19.78
2017-04-08T12:19:21.510Z,19.59
2017-04-08T12:20:30.250Z,20.27
2017-04-08T12:21:38.947Z,20.18
2017-04-08T12:22:47.719Z,20.28
2017-04-08T12:23:56.490Z,19.7
2017-04-08T12:25:05.582Z,19.89
2017-04-08T12:26:14.330Z,19.99
2017-04-08T12:27:23.058Z,20.07
2017-04-08T12:28:32.120Z,20.28
2017-04-08T12:29:40.877Z,20.08
2017-04-08T12:30:49.651Z,19.99
2017-04-08T12:31:58.418Z,20.28
2017-04-08T12:33:07.165Z,20.27
2017-04-08T12:34:16.393Z,20.37
2017-04-08T12:35:25.458Z,20.27
2017-04-08T12:36:34.835Z,20.17
2017-04-08T12:37:43.603Z,20.37
2017-04-08T12:38:52.667Z,20.27
2017-04-08T12:40:01.707Z,20.07
2017-04-08T12:41:11.038Z,20.18
2017-04-08T12:42:20.100Z,20.37
2017-04-08T12:43:28.838Z,19.98
2017-04-08T12:44:38.169Z,20.17
2017-04-08T12:45:47.205Z,20.07
2017-04-08T12:46:55.931Z,20.27
2017-04-08T12:48:04.703Z,19.98
2017-04-08T12:49:13.470Z,20.27
2017-04-08T12:50:22.242Z,20.37
2017-04-08T12:51:31.016Z,20.27
2017-04-08T12:52:40.079Z,20.46
2017-04-08T12:53:48.809Z,20.46
2017-04-08T12:54:57.533Z,20.46
2017-04-08T12:56:06.298Z,20.27
2017-04-08T12:57:15.067Z,20.37
2017-04-08T12:58:24.129Z,20.27
2017-04-08T12:59:32.893Z,20.07
2017-04-08T13:00:41.869Z,20.17
2017-04-08T13:01:50.643Z,20.46
2017-04-08T13:02:59.718Z,20.75
2017-04-08T13:04:08.477Z,20.75
2017-04-08T13:05:17.556Z,20.56
2017-04-08T13:06:26.629Z,20.46
2017-04-08T13:07:35.391Z,20.46
2017-04-08T13:08:44.161Z,20.37
2017-04-08T13:09:53.238Z,20.46
2017-04-08T13:11:02.047Z,20.75
2017-04-08T13:12:10.809Z,21.04
2017-04-08T13:13:20.190Z,21.14
2017-04-08T13:14:29.566Z,20.94
2017-04-08T13:15:38.642Z,21.03
2017-04-08T13:16:47.683Z,20.84
2017-04-08T13:17:56.403Z,20.94
2017-04-08T13:19:05.467Z,20.94
2017-04-08T13:20:14.858Z,21.13
2017-04-08T13:21:23.553Z,21.23
2017-04-08T13:22:32.250Z,21.03
2017-04-08T13:23:41.600Z,20.94
2017-04-08T13:24:50.368Z,20.94
2017-04-08T13:25:59.754Z,20.94
2017-04-08T13:27:09.628Z,21.03
2017-04-08T13:28:18.393Z,21.03
2017-04-08T13:29:28.378Z,21.33
2017-04-08T13:30:37.438Z,20.94
2017-04-08T13:31:46.202Z,21.13
2017-04-08T13:32:54.937Z,21.13
2017-04-08T13:34:04.261Z,21.33
2017-04-08T13:35:13.022Z,21.41
2017-04-08T13:36:21.759Z,21.23
2017-04-08T13:37:30.499Z,21.31
2017-04-08T13:38:39.577Z,21.41
2017-04-08T13:39:48.344Z,21.22
2017-04-08T13:40:57.442Z,21.31
2017-04-08T13:42:06.490Z,21.51
2017-04-08T13:43:15.211Z,21.33
2017-04-08T13:44:23.978Z,21.41
2017-04-08T13:45:32.749Z,21.41
2017-04-08T13:46:41.516Z,21.41
2017-04-08T13:47:50.274Z,21.61
2017-04-08T13:48:59.310Z,21.41
2017-04-08T13:50:08.638Z,21.31
2017-04-08T13:51:17.412Z,21.7
2017-04-08T13:52:26.453Z,21.41
2017-04-08T13:53:35.506Z,21.8
2017-04-08T13:54:44.532Z,21.7
2017-04-08T13:55:53.277Z,21.51
2017-04-08T13:57:02.016Z,21.89
2017-04-08T13:58:10.789Z,21.99
2017-04-08T13:59:19.564Z,21.51
2017-04-08T14:00:28.327Z,21.61
2017-04-08T14:01:37.394Z,21.7
2017-04-08T14:02:46.764Z,21.51
2017-04-08T14:03:56.110Z,21.61
2017-04-08T14:05:04.867Z,21.8
2017-04-08T14:06:13.593Z,21.41
2017-04-08T14:07:22.635Z,21.99
2017-04-08T14:08:31.638Z,21.89
2017-04-08T14:09:40.964Z,21.99
2017-04-08T14:10:50.005Z,21.89
2017-04-08T14:11:58.724Z,21.8
2017-04-08T14:13:07.790Z,21.8
2017-04-08T14:14:17.128Z,21.69
2017-04-08T14:15:26.157Z,21.98
2017-04-08T14:16:35.225Z,22.09
2017-04-08T14:17:44.264Z,22.28
2017-04-08T14:18:52.979Z,22.09
2017-04-08T14:20:01.999Z,21.99
2017-04-08T14:21:11.033Z,22.17
2017-04-08T14:22:20.484Z,22.17
2017-04-08T14:23:29.827Z,21.98
2017-04-08T14:24:38.902Z,22.17
2017-04-08T14:25:48.242Z,22.08
2017-04-08T14:26:56.974Z,22.08
2017-04-08T14:28:05.749Z,22.17
2017-04-08T14:29:14.830Z,22.27
2017-04-08T14:30:24.210Z,22.08
2017-04-08T14:31:32.945Z,21.98
2017-04-08T14:32:41.652Z,21.88
2017-04-08T14:33:50.361Z,22.56
2017-04-08T14:34:59.982Z,22.17
2017-04-08T14:36:09.348Z,22.27
2017-04-08T14:37:18.415Z,22.47
2017-04-08T14:38:27.488Z,22.08
2017-04-08T14:39:37.173Z,22.37
2017-04-08T14:40:46.229Z,22.56
2017-04-08T14:41:55.282Z,22.17
2017-04-08T14:43:04.312Z,22.37
2017-04-08T14:44:13.688Z,22.56
2017-04-08T14:45:23.075Z,22.66
2017-04-08T14:46:31.849Z,22.95
2017-04-08T14:47:40.891Z,22.75
2017-04-08T14:48:50.237Z,22.75
2017-04-08T14:49:58.991Z,22.37
2017-04-08T14:51:08.233Z,22.66